createdAt,value
2018-11-20T00:04:21.366Z,8.63
2018-11-20T00:10:06.539Z,8.70
2018-11-20T00:15:34.455Z,9.10
2018-11-20T00:21:19.677Z,9.23
2018-11-20T00:27:05.139Z,10.70
2018-11-20T00:32:53.189Z,8.87
2018-11-20T00:38:38.638Z,9.30
2018-11-20T00:44:23.734Z,7.87
2018-11-20T00:50:09.514Z,8.73
2018-11-20T00:55:57.346Z,9.33
2018-11-20T01:01:39.697Z,6.87
2018-11-20T01:07:28.560Z,10.43
2018-11-20T01:13:09.668Z,8.77
2018-11-20T01:18:56.521Z,9.60
2018-11-20T01:24:41.628Z,9.00
2018-11-20T01:30:33.281Z,9.17
2018-11-20T01:36:24.982Z,8.43
2018-11-20T01:42:10.832Z,10.33
2018-11-20T01:47:56.202Z,9.67
2018-11-20T01:53:48.180Z,10.57
2018-11-20T01:59:33.715Z,9.40
2018-11-20T02:05:20.223Z,7.20
2018-11-20T02:11:03.805Z,9.63
2018-11-20T02:16:49.374Z,8.97
2018-11-20T02:22:35.002Z,7.57
2018-11-20T02:28:23.921Z,7.23
2018-11-20T02:34:09.839Z,8.30
2018-11-20T02:40:00.802Z,9.20
2018-11-20T02:45:40.142Z,9.33
2018-11-20T02:51:26.078Z,9.33
2018-11-20T03:02:45.479Z,9.57
2018-11-20T03:08:32.343Z,8.73
2018-11-20T03:14:18.169Z,7.20
2018-11-20T03:20:09.978Z,10.17
2018-11-20T03:25:55.500Z,9.00
2018-11-20T03:31:38.068Z,8.80
2018-11-20T03:37:23.136Z,8.30
2018-11-20T03:43:08.556Z,8.73
2018-11-20T03:48:56.672Z,9.50
2018-11-20T03:54:42.252Z,8.60
2018-11-20T04:00:27.417Z,8.57
2018-11-20T04:06:12.811Z,8.80
2018-11-20T04:11:58.358Z,8.87
2018-11-20T04:17:37.442Z,9.70
2018-11-20T04:23:14.710Z,9.63
2018-11-20T04:29:00.531Z,10.67
2018-11-20T04:34:49.438Z,11.27
2018-11-20T04:40:35.217Z,8.53
2018-11-20T04:52:07.443Z,9.17
2018-11-20T04:57:53.333Z,8.30
2018-11-20T05:03:44.911Z,9.17
2018-11-20T05:09:30.216Z,7.43
2018-11-20T05:15:04.882Z,7.07
2018-11-20T05:26:52.790Z,7.60
2018-11-20T05:32:38.659Z,6.93
2018-11-20T05:38:26.547Z,10.17
2018-11-20T05:44:12.116Z,8.77
2018-11-20T05:50:00.565Z,10.03
2018-11-20T06:07:48.837Z,10.50
2018-11-20T06:13:34.042Z,10.83
2018-11-20T06:19:22.870Z,7.00
2018-11-20T06:25:08.328Z,8.40
2018-11-20T06:30:53.923Z,10.57
2018-11-20T06:36:39.254Z,9.10
2018-11-20T06:42:30.238Z,7.07
2018-11-20T06:48:15.607Z,9.33
2018-11-20T06:54:01.176Z,10.63
2018-11-20T06:59:47.184Z,7.33
2018-11-20T07:05:28.454Z,9.93
2018-11-20T07:11:17.056Z,9.33
2018-11-20T07:17:02.944Z,8.93
2018-11-20T07:22:49.974Z,8.00
2018-11-20T07:28:36.672Z,8.23
2018-11-20T07:34:16.890Z,7.97
2018-11-20T07:39:50.231Z,7.10
2018-11-20T07:45:37.159Z,6.93
2018-11-20T07:51:23.118Z,8.03
2018-11-20T07:57:18.140Z,5.67
2018-11-20T08:03:09.313Z,7.23
2018-11-20T08:08:47.500Z,7.20
2018-11-20T08:14:39.153Z,7.67
2018-11-20T08:20:24.249Z,8.53
2018-11-20T08:26:00.753Z,6.97
2018-11-20T08:31:46.474Z,7.63
2018-11-20T08:37:32.420Z,7.00
2018-11-20T08:43:17.752Z,6.50
2018-11-20T08:49:06.405Z,6.73
2018-11-20T08:54:52.064Z,6.53
2018-11-20T09:00:37.350Z,7.53
2018-11-20T09:06:22.717Z,8.77
2018-11-20T09:12:08.284Z,7.07
2018-11-20T09:17:54.046Z,8.67
2018-11-20T09:23:39.797Z,7.40
2018-11-20T09:29:24.855Z,9.90
2018-11-20T09:35:10.228Z,5.20
2018-11-20T09:40:51.343Z,7.80
2018-11-20T09:46:36.746Z,8.57
2018-11-20T09:52:13.921Z,3.53
2018-11-20T09:58:00.810Z,6.47
2018-11-20T10:03:46.016Z,5.90
2018-11-20T10:09:31.495Z,5.87
2018-11-20T10:15:20.006Z,5.93
2018-11-20T10:21:08.274Z,5.37
2018-11-20T10:26:53.990Z,6.47
2018-11-20T10:32:43.368Z,5.90
2018-11-20T10:38:29.059Z,5.70
2018-11-20T10:44:21.194Z,5.17
2018-11-20T10:50:06.610Z,5.70
2018-11-20T10:55:51.685Z,5.80
2018-11-20T11:01:40.764Z,5.93
2018-11-20T11:07:26.128Z,5.13
2018-11-20T11:13:11.524Z,5.97
2018-11-20T11:18:57.347Z,4.50
2018-11-20T11:24:43.239Z,5.23
2018-11-20T11:30:16.140Z,5.87
2018-11-20T11:36:01.979Z,4.57
2018-11-20T11:41:28.122Z,5.27
2018-11-20T11:47:13.207Z,5.57
2018-11-20T11:52:58.533Z,5.37
2018-11-20T11:58:44.441Z,5.00
2018-11-20T12:10:39.549Z,7.87
2018-11-20T12:16:25.523Z,7.70
2018-11-20T12:22:11.015Z,5.87
2018-11-20T12:27:56.578Z,5.73
2018-11-20T12:33:42.291Z,5.40
2018-11-20T12:39:34.129Z,5.10
2018-11-20T12:45:15.593Z,5.73
2018-11-20T12:50:59.797Z,5.37
2018-11-20T12:56:45.692Z,5.37
2018-11-20T13:02:31.381Z,5.33
2018-11-20T13:08:23.064Z,5.80
2018-11-20T13:14:20.432Z,6.20
2018-11-20T13:20:05.994Z,5.60
2018-11-20T13:25:52.847Z,6.00
2018-11-20T13:31:38.260Z,5.37
2018-11-20T13:38:05.560Z,5.50
2018-11-20T13:43:51.924Z,5.07
2018-11-20T13:49:35.824Z,5.40
2018-11-20T13:55:12.369Z,6.30
2018-11-20T14:00:58.396Z,6.47
2018-11-20T14:06:39.704Z,5.60
2018-11-20T14:12:25.082Z,5.40
2018-11-20T14:24:21.334Z,5.10
2018-11-20T14:29:54.300Z,5.80
2018-11-20T14:35:40.361Z,6.43
2018-11-20T14:41:32.055Z,7.17
2018-11-20T14:47:17.767Z,6.17
2018-11-20T14:53:03.302Z,5.47
2018-11-20T14:58:48.969Z,5.23
2018-11-20T15:04:34.038Z,5.87
2018-11-20T15:10:17.376Z,6.20
2018-11-20T15:16:02.064Z,6.23
2018-11-20T15:21:48.007Z,6.93
2018-11-20T15:27:33.842Z,6.50
2018-11-20T15:33:19.133Z,6.53
2018-11-20T15:39:14.616Z,7.83
2018-11-20T15:45:00.080Z,6.33
2018-11-20T15:50:45.788Z,6.63
2018-11-20T16:02:33.462Z,7.50
2018-11-20T16:08:19.055Z,5.83
2018-11-20T16:14:04.668Z,6.33
2018-11-20T16:19:56.511Z,7.03
2018-11-20T16:25:44.958Z,7.23
2018-11-20T16:31:33.125Z,6.93
2018-11-20T16:37:24.413Z,7.57
2018-11-20T16:43:10.578Z,10.77
2018-11-20T16:48:55.765Z,10.60
2018-11-20T16:54:41.109Z,8.47
2018-11-20T17:00:26.349Z,7.60
2018-11-20T17:06:12.321Z,8.50
2018-11-20T17:12:01.183Z,7.40
2018-11-20T17:17:49.741Z,7.87
2018-11-20T17:23:35.355Z,8.13
2018-11-20T17:29:21.946Z,10.27
2018-11-20T17:35:07.634Z,9.13
2018-11-20T17:40:59.436Z,8.50
2018-11-20T17:46:45.260Z,8.63
2018-11-20T17:58:16.854Z,8.23
2018-11-20T18:04:08.401Z,9.37
2018-11-20T18:20:31.345Z,7.90
2018-11-20T18:26:25.968Z,8.37
2018-11-20T18:32:10.860Z,7.73
2018-11-20T18:38:02.291Z,8.43
2018-11-20T18:43:47.369Z,8.73
2018-11-20T18:49:36.312Z,9.63
2018-11-20T19:07:14.158Z,12.07
2018-11-20T19:12:59.602Z,10.37
2018-11-20T19:18:46.184Z,12.57
2018-11-20T19:24:31.390Z,11.47
2018-11-20T19:30:20.229Z,13.60
2018-11-20T19:41:22.190Z,10.97
2018-11-20T19:47:07.378Z,9.47
2018-11-20T19:52:54.318Z,10.13
2018-11-20T19:58:40.166Z,10.70
2018-11-20T20:04:24.466Z,11.20
2018-11-20T20:10:17.527Z,11.33
2018-11-20T20:15:36.792Z,12.23
2018-11-20T20:21:23.268Z,12.27
2018-11-20T20:27:11.718Z,10.23
2018-11-20T20:32:56.934Z,10.80
2018-11-20T20:38:45.786Z,10.67
2018-11-20T20:44:31.514Z,11.87
2018-11-20T20:50:13.500Z,10.43
2018-11-20T20:55:58.754Z,9.13
2018-11-20T21:01:51.497Z,9.33
2018-11-20T21:07:39.794Z,8.33
2018-11-20T21:13:28.094Z,11.23
2018-11-20T21:19:19.957Z,10.80
2018-11-20T21:25:06.509Z,12.40
2018-11-20T21:30:51.607Z,11.40
2018-11-20T21:36:37.444Z,9.93
2018-11-20T21:42:04.215Z,10.77
2018-11-20T21:47:44.980Z,9.30
2018-11-20T21:53:30.270Z,11.97
2018-11-20T21:59:15.849Z,11.67
2018-11-20T22:05:01.254Z,13.47
2018-11-20T22:10:49.586Z,17.77
2018-11-20T22:16:35.409Z,11.87
2018-11-20T22:22:21.017Z,11.97
2018-11-20T22:28:07.034Z,13.43
2018-11-20T22:33:52.389Z,13.70
2018-11-20T22:39:40.875Z,12.60
2018-11-20T22:45:26.765Z,14.73
2018-11-20T22:51:19.318Z,14.67
2018-11-20T22:57:05.295Z,13.33
2018-11-20T23:02:51.191Z,13.03
2018-11-20T23:08:17.724Z,12.93
2018-11-20T23:13:44.455Z,12.87
2018-11-20T23:19:11.446Z,10.93
2018-11-20T23:24:37.656Z,12.00
2018-11-20T23:30:04.366Z,12.77
2018-11-20T23:35:30.475Z,12.77
2018-11-20T23:40:57.020Z,11.57
2018-11-20T23:46:24.061Z,11.73
2018-11-20T23:51:50.123Z,11.37
2018-11-20T23:57:16.458Z,11.90
